Gould, Oklahoma
Current Conditions -  °F | °C
As of 3:15 AM on Friday 19 Dec 2014 (Local Time) from KAXS Reporting Station
Haze Haze  
Wind Chill:   Ceiling: 700
Heat Index:   Visibility: 5mi
Dew Point:   Wind: 6mph
Humidity: 88%   Direction: 20°NNE
Pressure: 30.2"   Gusts: NA
Location:  34.67°N, 99.77°W
Report Text: KAXS 190915Z AUTO 02005KT 5SM BR OVC007 05/03 A3020 RMK AO2 T00510032
Loading
Personal Weather Stations






























Interactive Weather Map New forecast layout! Learn more

10-Day Weather Forecast

Advertisements
Track Severe Weather on mobile